Milligan, Tennessee
Current Conditions -  °F | °C
As of 12:15 AM on Monday 20 Oct 2014 (Local Time) from K0A9 Reporting Station
Clear Clear  
Wind Chill: 43°   Ceiling: Unl
Heat Index: 43°   Visibility: 10mi
Dew Point: 37°   Wind: 3mph
Humidity: 81%   Direction: 50°NE
Pressure: 30.12"   Gusts: NA
Location:  36.3017°N, 82.2994°W
Report Text: K0A9 200415Z AUTO 05003KT 10SM CLR 06/03 A3012 RMK
Loading
Personal Weather Stations






























Interactive Weather Map
Tropical Storm Tracking
New forecast layout! Learn more

10-Day Weather Forecast

Advertisements
Track Severe Weather on mobile